sensor_id;sensor_type;location;lat;lon;timestamp;P1;durP1;ratioP1;P2;durP2;ratioP2
22026;SDS011;11177;50.966;10.070;2023-04-15T00:00:55;8.90;;;6.05;;
22026;SDS011;11177;50.966;10.070;2023-04-15T00:03:22;8.32;;;5.28;;
22026;SDS011;11177;50.966;10.070;2023-04-15T00:05:50;7.40;;;5.50;;
22026;SDS011;11177;50.966;10.070;2023-04-15T00:08:17;7.72;;;5.78;;
22026;SDS011;11177;50.966;10.070;2023-04-15T00:10:44;8.40;;;5.45;;
22026;SDS011;11177;50.966;10.070;2023-04-15T00:13:12;8.35;;;5.43;;
22026;SDS011;11177;50.966;10.070;2023-04-15T00:15:38;8.70;;;5.90;;
22026;SDS011;11177;50.966;10.070;2023-04-15T00:18:05;10.40;;;5.88;;
22026;SDS011;11177;50.966;10.070;2023-04-15T00:20:33;7.97;;;5.70;;
22026;SDS011;11177;50.966;10.070;2023-04-15T00:23:01;9.90;;;6.00;;
22026;SDS011;11177;50.966;10.070;2023-04-15T00:25:29;8.95;;;5.95;;
22026;SDS011;11177;50.966;10.070;2023-04-15T00:27:56;11.00;;;6.20;;
22026;SDS011;11177;50.966;10.070;2023-04-15T00:30:23;8.18;;;5.65;;
22026;SDS011;11177;50.966;10.070;2023-04-15T00:32:51;8.70;;;5.85;;
22026;SDS011;11177;50.966;10.070;2023-04-15T00:35:18;9.07;;;6.10;;
22026;SDS011;11177;50.966;10.070;2023-04-15T00:37:45;11.13;;;6.80;;
22026;SDS011;11177;50.966;10.070;2023-04-15T00:40:12;13.02;;;7.38;;
22026;SDS011;11177;50.966;10.070;2023-04-15T00:42:39;13.55;;;6.90;;
22026;SDS011;11177;50.966;10.070;2023-04-15T00:45:06;10.95;;;6.60;;
22026;SDS011;11177;50.966;10.070;2023-04-15T00:47:34;13.23;;;7.03;;
22026;SDS011;11177;50.966;10.070;2023-04-15T00:50:03;11.20;;;6.88;;
22026;SDS011;11177;50.966;10.070;2023-04-15T00:52:30;10.10;;;6.93;;
22026;SDS011;11177;50.966;10.070;2023-04-15T00:54:57;11.15;;;6.80;;
22026;SDS011;11177;50.966;10.070;2023-04-15T00:57:25;8.75;;;6.45;;
22026;SDS011;11177;50.966;10.070;2023-04-15T00:59:52;9.57;;;6.57;;
22026;SDS011;11177;50.966;10.070;2023-04-15T01:02:21;10.52;;;6.75;;
22026;SDS011;11177;50.966;10.070;2023-04-15T01:04:49;8.98;;;6.88;;
22026;SDS011;11177;50.966;10.070;2023-04-15T01:07:19;9.00;;;6.32;;
22026;SDS011;11177;50.966;10.070;2023-04-15T01:09:46;11.13;;;6.70;;
22026;SDS011;11177;50.966;10.070;2023-04-15T01:12:13;10.52;;;6.60;;
22026;SDS011;11177;50.966;10.070;2023-04-15T01:14:41;9.75;;;6.78;;
22026;SDS011;11177;50.966;10.070;2023-04-15T01:17:09;8.82;;;6.45;;
22026;SDS011;11177;50.966;10.070;2023-04-15T01:19:36;8.90;;;6.32;;
22026;SDS011;11177;50.966;10.070;2023-04-15T01:22:03;12.57;;;7.00;;
22026;SDS011;11177;50.966;10.070;2023-04-15T01:24:31;9.25;;;5.95;;
22026;SDS011;11177;50.966;10.070;2023-04-15T01:26:58;8.00;;;6.07;;
22026;SDS011;11177;50.966;10.070;2023-04-15T01:29:25;14.00;;;5.93;;
22026;SDS011;11177;50.966;10.070;2023-04-15T01:31:53;9.32;;;6.38;;
22026;SDS011;11177;50.966;10.070;2023-04-15T01:34:21;10.90;;;6.45;;
22026;SDS011;11177;50.966;10.070;2023-04-15T01:36:48;9.75;;;6.35;;
22026;SDS011;11177;50.966;10.070;2023-04-15T01:39:15;9.10;;;6.45;;
22026;SDS011;11177;50.966;10.070;2023-04-15T01:41:42;8.88;;;6.10;;
22026;SDS011;11177;50.966;10.070;2023-04-15T01:44:09;9.85;;;6.43;;
22026;SDS011;11177;50.966;10.070;2023-04-15T01:46:36;9.05;;;6.13;;
22026;SDS011;11177;50.966;10.070;2023-04-15T01:49:03;10.63;;;6.45;;
22026;SDS011;11177;50.966;10.070;2023-04-15T01:51:30;9.23;;;6.40;;
22026;SDS011;11177;50.966;10.070;2023-04-15T01:53:57;9.52;;;6.47;;
22026;SDS011;11177;50.966;10.070;2023-04-15T01:56:24;8.43;;;5.95;;
22026;SDS011;11177;50.966;10.070;2023-04-15T01:58:52;8.60;;;6.30;;
22026;SDS011;11177;50.966;10.070;2023-04-15T02:01:18;9.70;;;6.47;;
22026;SDS011;11177;50.966;10.070;2023-04-15T02:03:46;9.27;;;6.63;;
22026;SDS011;11177;50.966;10.070;2023-04-15T02:06:13;10.23;;;6.70;;
22026;SDS011;11177;50.966;10.070;2023-04-15T02:08:41;8.15;;;6.00;;
22026;SDS011;11177;50.966;10.070;2023-04-15T02:11:07;9.23;;;6.28;;
22026;SDS011;11177;50.966;10.070;2023-04-15T02:13:35;12.05;;;6.63;;
22026;SDS011;11177;50.966;10.070;2023-04-15T02:16:01;10.73;;;6.22;;
22026;SDS011;11177;50.966;10.070;2023-04-15T02:18:29;7.53;;;5.45;;
22026;SDS011;11177;50.966;10.070;2023-04-15T02:20:56;7.43;;;5.88;;
22026;SDS011;11177;50.966;10.070;2023-04-15T02:23:24;8.88;;;6.40;;
22026;SDS011;11177;50.966;10.070;2023-04-15T02:25:51;7.53;;;5.72;;
22026;SDS011;11177;50.966;10.070;2023-04-15T02:28:19;9.73;;;6.53;;
22026;SDS011;11177;50.966;10.070;2023-04-15T02:30:47;9.00;;;6.38;;
22026;SDS011;11177;50.966;10.070;2023-04-15T02:33:18;10.25;;;6.10;;
22026;SDS011;11177;50.966;10.070;2023-04-15T02:35:45;9.32;;;5.97;;
22026;SDS011;11177;50.966;10.070;2023-04-15T02:38:13;8.15;;;6.25;;
22026;SDS011;11177;50.966;10.070;2023-04-15T02:40:42;7.95;;;6.30;;
22026;SDS011;11177;50.966;10.070;2023-04-15T02:43:09;9.48;;;6.50;;
22026;SDS011;11177;50.966;10.070;2023-04-15T02:45:36;9.70;;;6.20;;
22026;SDS011;11177;50.966;10.070;2023-04-15T02:48:02;10.15;;;6.40;;
22026;SDS011;11177;50.966;10.070;2023-04-15T02:50:31;11.45;;;7.03;;
22026;SDS011;11177;50.966;10.070;2023-04-15T02:52:59;8.77;;;6.57;;
22026;SDS011;11177;50.966;10.070;2023-04-15T02:55:27;10.93;;;6.78;;
22026;SDS011;11177;50.966;10.070;2023-04-15T02:57:54;13.50;;;7.00;;
22026;SDS011;11177;50.966;10.070;2023-04-15T03:00:22;9.48;;;6.53;;
22026;SDS011;11177;50.966;10.070;2023-04-15T03:02:51;10.05;;;6.47;;
22026;SDS011;11177;50.966;10.070;2023-04-15T03:05:22;10.38;;;6.57;;
22026;SDS011;11177;50.966;10.070;2023-04-15T03:07:51;10.40;;;7.05;;
22026;SDS011;11177;50.966;10.070;2023-04-15T03:10:19;13.15;;;7.32;;
22026;SDS011;11177;50.966;10.070;2023-04-15T03:12:46;10.20;;;7.00;;
22026;SDS011;11177;50.966;10.070;2023-04-15T03:15:13;9.80;;;6.75;;
22026;SDS011;11177;50.966;10.070;2023-04-15T03:17:41;10.85;;;6.70;;
22026;SDS011;11177;50.966;10.070;2023-04-15T03:20:07;8.63;;;6.78;;
22026;SDS011;11177;50.966;10.070;2023-04-15T03:22:35;9.77;;;6.78;;
22026;SDS011;11177;50.966;10.070;2023-04-15T03:25:02;10.20;;;6.85;;
22026;SDS011;11177;50.966;10.070;2023-04-15T03:27:29;10.70;;;7.05;;
22026;SDS011;11177;50.966;10.070;2023-04-15T03:29:55;11.23;;;7.05;;
22026;SDS011;11177;50.966;10.070;2023-04-15T03:32:22;10.23;;;6.88;;
22026;SDS011;11177;50.966;10.070;2023-04-15T03:34:49;9.50;;;6.80;;
22026;SDS011;11177;50.966;10.070;2023-04-15T03:37:16;10.95;;;7.05;;
22026;SDS011;11177;50.966;10.070;2023-04-15T03:39:42;11.45;;;6.85;;
22026;SDS011;11177;50.966;10.070;2023-04-15T03:42:09;12.40;;;7.50;;
22026;SDS011;11177;50.966;10.070;2023-04-15T03:44:36;14.90;;;8.43;;
22026;SDS011;11177;50.966;10.070;2023-04-15T03:47:03;12.75;;;7.65;;
22026;SDS011;11177;50.966;10.070;2023-04-15T03:49:30;11.57;;;7.63;;
22026;SDS011;11177;50.966;10.070;2023-04-15T03:51:57;9.93;;;7.50;;
22026;SDS011;11177;50.966;10.070;2023-04-15T03:54:25;11.02;;;7.57;;
22026;SDS011;11177;50.966;10.070;2023-04-15T03:56:51;12.15;;;7.20;;
22026;SDS011;11177;50.966;10.070;2023-04-15T03:59:19;12.20;;;7.55;;
22026;SDS011;11177;50.966;10.070;2023-04-15T04:01:45;11.98;;;7.50;;
22026;SDS011;11177;50.966;10.070;2023-04-15T04:04:13;16.42;;;7.93;;
22026;SDS011;11177;50.966;10.070;2023-04-15T04:06:40;11.98;;;6.97;;
22026;SDS011;11177;50.966;10.070;2023-04-15T04:09:07;9.88;;;7.32;;
22026;SDS011;11177;50.966;10.070;2023-04-15T04:11:33;15.18;;;9.75;;
22026;SDS011;11177;50.966;10.070;2023-04-15T04:14:00;17.20;;;11.77;;
22026;SDS011;11177;50.966;10.070;2023-04-15T04:16:27;17.70;;;10.20;;
22026;SDS011;11177;50.966;10.070;2023-04-15T04:18:54;20.02;;;12.35;;
22026;SDS011;11177;50.966;10.070;2023-04-15T04:21:21;19.52;;;13.40;;
22026;SDS011;11177;50.966;10.070;2023-04-15T04:23:49;16.90;;;11.05;;
22026;SDS011;11177;50.966;10.070;2023-04-15T04:26:17;17.60;;;11.25;;
22026;SDS011;11177;50.966;10.070;2023-04-15T04:28:44;25.10;;;13.73;;
22026;SDS011;11177;50.966;10.070;2023-04-15T04:31:11;26.98;;;15.48;;
22026;SDS011;11177;50.966;10.070;2023-04-15T04:33:40;28.35;;;15.85;;
22026;SDS011;11177;50.966;10.070;2023-04-15T04:36:07;27.58;;;16.70;;
22026;SDS011;11177;50.966;10.070;2023-04-15T04:38:34;22.95;;;12.50;;
22026;SDS011;11177;50.966;10.070;2023-04-15T04:41:01;25.58;;;13.23;;
22026;SDS011;11177;50.966;10.070;2023-04-15T04:43:28;37.47;;;19.50;;
22026;SDS011;11177;50.966;10.070;2023-04-15T04:45:55;31.17;;;16.42;;
22026;SDS011;11177;50.966;10.070;2023-04-15T04:48:22;22.20;;;13.63;;
22026;SDS011;11177;50.966;10.070;2023-04-15T04:50:49;16.02;;;9.88;;
22026;SDS011;11177;50.966;10.070;2023-04-15T04:53:23;12.60;;;8.90;;
22026;SDS011;11177;50.966;10.070;2023-04-15T04:55:56;13.68;;;9.00;;
22026;SDS011;11177;50.966;10.070;2023-04-15T04:58:23;14.55;;;8.15;;
22026;SDS011;11177;50.966;10.070;2023-04-15T05:00:51;11.88;;;8.27;;
22026;SDS011;11177;50.966;10.070;2023-04-15T05:03:18;10.90;;;8.48;;
22026;SDS011;11177;50.966;10.070;2023-04-15T05:05:48;14.70;;;9.15;;
22026;SDS011;11177;50.966;10.070;2023-04-15T05:08:15;14.40;;;8.88;;
22026;SDS011;11177;50.966;10.070;2023-04-15T05:10:43;12.07;;;8.90;;
22026;SDS011;11177;50.966;10.070;2023-04-15T05:13:11;13.02;;;9.45;;
22026;SDS011;11177;50.966;10.070;2023-04-15T05:15:39;14.55;;;9.30;;
22026;SDS011;11177;50.966;10.070;2023-04-15T05:18:09;14.88;;;10.07;;
22026;SDS011;11177;50.966;10.070;2023-04-15T05:20:37;14.93;;;10.75;;
22026;SDS011;11177;50.966;10.070;2023-04-15T05:23:05;15.13;;;10.48;;
22026;SDS011;11177;50.966;10.070;2023-04-15T05:25:31;14.55;;;10.43;;
22026;SDS011;11177;50.966;10.070;2023-04-15T05:27:59;16.30;;;10.77;;
22026;SDS011;11177;50.966;10.070;2023-04-15T05:30:27;16.10;;;11.27;;
22026;SDS011;11177;50.966;10.070;2023-04-15T05:32:54;14.60;;;10.70;;
22026;SDS011;11177;50.966;10.070;2023-04-15T05:35:21;16.20;;;11.20;;
22026;SDS011;11177;50.966;10.070;2023-04-15T05:37:48;14.38;;;10.35;;
22026;SDS011;11177;50.966;10.070;2023-04-15T05:40:15;16.27;;;10.20;;
22026;SDS011;11177;50.966;10.070;2023-04-15T05:42:42;16.10;;;10.02;;
22026;SDS011;11177;50.966;10.070;2023-04-15T05:45:09;15.80;;;9.95;;
22026;SDS011;11177;50.966;10.070;2023-04-15T05:47:36;15.85;;;10.23;;
22026;SDS011;11177;50.966;10.070;2023-04-15T05:50:03;12.75;;;9.38;;
22026;SDS011;11177;50.966;10.070;2023-04-15T05:52:32;13.68;;;10.07;;
22026;SDS011;11177;50.966;10.070;2023-04-15T05:54:59;13.85;;;9.98;;
22026;SDS011;11177;50.966;10.070;2023-04-15T05:57:25;14.23;;;10.52;;
22026;SDS011;11177;50.966;10.070;2023-04-15T05:59:52;15.75;;;11.05;;
22026;SDS011;11177;50.966;10.070;2023-04-15T06:02:20;16.67;;;10.60;;
22026;SDS011;11177;50.966;10.070;2023-04-15T06:04:47;17.70;;;11.30;;
22026;SDS011;11177;50.966;10.070;2023-04-15T06:07:14;15.50;;;10.95;;
22026;SDS011;11177;50.966;10.070;2023-04-15T06:09:41;16.58;;;10.80;;
22026;SDS011;11177;50.966;10.070;2023-04-15T06:12:08;16.73;;;11.10;;
22026;SDS011;11177;50.966;10.070;2023-04-15T06:14:37;14.85;;;10.77;;
22026;SDS011;11177;50.966;10.070;2023-04-15T06:17:06;13.82;;;10.13;;
22026;SDS011;11177;50.966;10.070;2023-04-15T06:19:33;14.15;;;10.38;;
22026;SDS011;11177;50.966;10.070;2023-04-15T06:22:01;16.38;;;11.07;;
22026;SDS011;11177;50.966;10.070;2023-04-15T06:24:28;16.40;;;11.27;;
22026;SDS011;11177;50.966;10.070;2023-04-15T06:26:55;16.92;;;10.88;;
22026;SDS011;11177;50.966;10.070;2023-04-15T06:29:23;16.75;;;11.10;;
22026;SDS011;11177;50.966;10.070;2023-04-15T06:31:50;18.65;;;11.15;;
22026;SDS011;11177;50.966;10.070;2023-04-15T06:34:18;16.77;;;11.60;;
22026;SDS011;11177;50.966;10.070;2023-04-15T06:36:49;16.10;;;11.60;;
22026;SDS011;11177;50.966;10.070;2023-04-15T06:39:16;16.77;;;11.55;;
22026;SDS011;11177;50.966;10.070;2023-04-15T06:41:43;16.60;;;11.20;;
22026;SDS011;11177;50.966;10.070;2023-04-15T06:44:10;14.52;;;10.98;;
22026;SDS011;11177;50.966;10.070;2023-04-15T06:46:38;14.60;;;10.93;;
22026;SDS011;11177;50.966;10.070;2023-04-15T06:49:06;15.75;;;10.70;;
22026;SDS011;11177;50.966;10.070;2023-04-15T06:51:37;15.48;;;10.43;;
22026;SDS011;11177;50.966;10.070;2023-04-15T06:54:06;15.00;;;10.75;;
22026;SDS011;11177;50.966;10.070;2023-04-15T06:56:35;11.50;;;8.50;;
22026;SDS011;11177;50.966;10.070;2023-04-15T06:59:17;13.57;;;8.93;;
22026;SDS011;11177;50.966;10.070;2023-04-15T07:01:51;12.77;;;9.13;;
22026;SDS011;11177;50.966;10.070;2023-04-15T07:04:34;13.23;;;8.75;;
22026;SDS011;11177;50.966;10.070;2023-04-15T07:07:08;14.70;;;9.50;;
22026;SDS011;11177;50.966;10.070;2023-04-15T07:09:45;12.73;;;9.07;;
22026;SDS011;11177;50.966;10.070;2023-04-15T07:12:16;11.40;;;8.95;;
22026;SDS011;11177;50.966;10.070;2023-04-15T07:14:43;13.25;;;9.38;;
22026;SDS011;11177;50.966;10.070;2023-04-15T07:17:11;13.40;;;8.35;;
22026;SDS011;11177;50.966;10.070;2023-04-15T07:19:39;13.48;;;9.43;;
22026;SDS011;11177;50.966;10.070;2023-04-15T07:22:06;13.73;;;9.15;;
22026;SDS011;11177;50.966;10.070;2023-04-15T07:24:34;12.68;;;9.52;;
22026;SDS011;11177;50.966;10.070;2023-04-15T07:27:04;12.93;;;9.43;;
22026;SDS011;11177;50.966;10.070;2023-04-15T07:29:31;12.73;;;9.15;;
22026;SDS011;11177;50.966;10.070;2023-04-15T07:32:03;14.70;;;9.80;;
22026;SDS011;11177;50.966;10.070;2023-04-15T07:34:30;10.95;;;8.18;;
22026;SDS011;11177;50.966;10.070;2023-04-15T07:36:58;13.63;;;9.52;;
22026;SDS011;11177;50.966;10.070;2023-04-15T07:39:25;12.48;;;9.50;;
22026;SDS011;11177;50.966;10.070;2023-04-15T07:41:52;13.30;;;9.82;;
22026;SDS011;11177;50.966;10.070;2023-04-15T07:44:20;14.20;;;9.35;;
22026;SDS011;11177;50.966;10.070;2023-04-15T07:46:47;12.77;;;9.52;;
22026;SDS011;11177;50.966;10.070;2023-04-15T07:49:15;11.32;;;8.40;;
22026;SDS011;11177;50.966;10.070;2023-04-15T07:51:46;12.68;;;9.27;;
22026;SDS011;11177;50.966;10.070;2023-04-15T07:54:14;12.07;;;8.90;;
22026;SDS011;11177;50.966;10.070;2023-04-15T07:56:41;11.90;;;8.85;;
22026;SDS011;11177;50.966;10.070;2023-04-15T07:59:08;10.73;;;8.23;;
22026;SDS011;11177;50.966;10.070;2023-04-15T08:01:36;11.60;;;8.40;;
22026;SDS011;11177;50.966;10.070;2023-04-15T08:04:03;12.30;;;9.00;;
22026;SDS011;11177;50.966;10.070;2023-04-15T08:06:31;12.43;;;9.52;;
22026;SDS011;11177;50.966;10.070;2023-04-15T08:09:00;12.88;;;9.32;;
22026;SDS011;11177;50.966;10.070;2023-04-15T08:11:29;13.23;;;9.13;;
22026;SDS011;11177;50.966;10.070;2023-04-15T08:14:00;13.57;;;9.25;;
22026;SDS011;11177;50.966;10.070;2023-04-15T08:16:27;11.38;;;8.32;;
22026;SDS011;11177;50.966;10.070;2023-04-15T08:18:55;10.75;;;8.05;;
22026;SDS011;11177;50.966;10.070;2023-04-15T08:21:23;9.82;;;7.20;;
22026;SDS011;11177;50.966;10.070;2023-04-15T08:23:53;11.50;;;8.02;;
22026;SDS011;11177;50.966;10.070;2023-04-15T08:26:21;8.15;;;6.88;;
22026;SDS011;11177;50.966;10.070;2023-04-15T08:28:48;9.35;;;6.70;;
22026;SDS011;11177;50.966;10.070;2023-04-15T08:31:19;14.95;;;8.55;;
22026;SDS011;11177;50.966;10.070;2023-04-15T08:33:47;11.50;;;8.35;;
22026;SDS011;11177;50.966;10.070;2023-04-15T08:36:14;10.80;;;7.65;;
22026;SDS011;11177;50.966;10.070;2023-04-15T08:38:43;11.57;;;7.97;;
22026;SDS011;11177;50.966;10.070;2023-04-15T08:41:15;14.48;;;9.70;;
22026;SDS011;11177;50.966;10.070;2023-04-15T08:43:51;21.67;;;12.82;;
22026;SDS011;11177;50.966;10.070;2023-04-15T08:46:21;20.67;;;12.00;;
22026;SDS011;11177;50.966;10.070;2023-04-15T08:48:52;16.63;;;9.63;;
22026;SDS011;11177;50.966;10.070;2023-04-15T08:51:23;10.60;;;7.93;;
22026;SDS011;11177;50.966;10.070;2023-04-15T08:53:51;11.30;;;8.05;;
22026;SDS011;11177;50.966;10.070;2023-04-15T08:56:18;9.57;;;7.53;;
22026;SDS011;11177;50.966;10.070;2023-04-15T08:58:53;10.50;;;7.30;;
22026;SDS011;11177;50.966;10.070;2023-04-15T09:01:24;6.30;;;4.68;;
22026;SDS011;11177;50.966;10.070;2023-04-15T09:03:51;5.90;;;4.65;;
22026;SDS011;11177;50.966;10.070;2023-04-15T09:06:20;6.95;;;4.93;;
22026;SDS011;11177;50.966;10.070;2023-04-15T09:08:48;6.00;;;4.80;;
22026;SDS011;11177;50.966;10.070;2023-04-15T09:11:20;5.95;;;4.80;;
22026;SDS011;11177;50.966;10.070;2023-04-15T09:13:48;6.88;;;4.90;;
22026;SDS011;11177;50.966;10.070;2023-04-15T09:16:21;5.88;;;4.80;;
22026;SDS011;11177;50.966;10.070;2023-04-15T09:18:49;6.20;;;4.68;;
22026;SDS011;11177;50.966;10.070;2023-04-15T09:21:26;6.00;;;4.72;;
22026;SDS011;11177;50.966;10.070;2023-04-15T09:23:58;9.25;;;5.40;;
22026;SDS011;11177;50.966;10.070;2023-04-15T09:26:31;7.60;;;5.30;;
22026;SDS011;11177;50.966;10.070;2023-04-15T09:29:07;6.03;;;4.87;;
22026;SDS011;11177;50.966;10.070;2023-04-15T09:31:37;6.75;;;4.90;;
22026;SDS011;11177;50.966;10.070;2023-04-15T09:34:07;5.85;;;4.70;;
22026;SDS011;11177;50.966;10.070;2023-04-15T09:39:49;5.53;;;4.28;;
22026;SDS011;11177;50.966;10.070;2023-04-15T09:42:17;6.88;;;4.22;;
22026;SDS011;11177;50.966;10.070;2023-04-15T09:44:54;5.82;;;4.30;;
22026;SDS011;11177;50.966;10.070;2023-04-15T09:47:28;5.00;;;4.05;;
22026;SDS011;11177;50.966;10.070;2023-04-15T09:49:58;5.45;;;4.30;;
22026;SDS011;11177;50.966;10.070;2023-04-15T09:52:26;5.15;;;4.20;;
22026;SDS011;11177;50.966;10.070;2023-04-15T09:54:57;6.88;;;4.35;;
22026;SDS011;11177;50.966;10.070;2023-04-15T09:57:32;3.92;;;3.30;;
22026;SDS011;11177;50.966;10.070;2023-04-15T10:00:03;3.50;;;3.05;;
22026;SDS011;11177;50.966;10.070;2023-04-15T10:02:33;3.90;;;3.50;;
22026;SDS011;11177;50.966;10.070;2023-04-15T10:05:04;5.20;;;3.72;;
22026;SDS011;11177;50.966;10.070;2023-04-15T10:07:36;3.95;;;3.30;;
22026;SDS011;11177;50.966;10.070;2023-04-15T10:10:05;3.95;;;3.50;;
22026;SDS011;11177;50.966;10.070;2023-04-15T10:12:33;4.35;;;3.42;;
22026;SDS011;11177;50.966;10.070;2023-04-15T10:15:03;4.05;;;3.17;;
22026;SDS011;11177;50.966;10.070;2023-04-15T10:17:33;3.47;;;3.10;;
22026;SDS011;11177;50.966;10.070;2023-04-15T10:20:01;3.33;;;2.75;;
22026;SDS011;11177;50.966;10.070;2023-04-15T10:22:31;10.82;;;5.28;;
22026;SDS011;11177;50.966;10.070;2023-04-15T10:25:00;27.05;;;11.90;;
22026;SDS011;11177;50.966;10.070;2023-04-15T10:27:28;11.13;;;6.10;;
22026;SDS011;11177;50.966;10.070;2023-04-15T10:29:56;6.30;;;3.25;;
22026;SDS011;11177;50.966;10.070;2023-04-15T10:32:23;6.65;;;4.50;;
22026;SDS011;11177;50.966;10.070;2023-04-15T10:34:51;2.78;;;2.28;;
22026;SDS011;11177;50.966;10.070;2023-04-15T10:37:20;2.55;;;2.03;;
22026;SDS011;11177;50.966;10.070;2023-04-15T10:39:48;1.98;;;1.77;;
22026;SDS011;11177;50.966;10.070;2023-04-15T10:42:18;2.10;;;1.75;;
22026;SDS011;11177;50.966;10.070;2023-04-15T10:44:49;1.98;;;1.75;;
22026;SDS011;11177;50.966;10.070;2023-04-15T10:47:20;1.73;;;1.60;;
22026;SDS011;11177;50.966;10.070;2023-04-15T10:49:51;2.30;;;1.60;;
22026;SDS011;11177;50.966;10.070;2023-04-15T10:52:26;2.00;;;1.80;;
22026;SDS011;11177;50.966;10.070;2023-04-15T10:55:13;1.70;;;1.45;;
22026;SDS011;11177;50.966;10.070;2023-04-15T10:57:42;1.95;;;1.83;;
22026;SDS011;11177;50.966;10.070;2023-04-15T11:00:11;1.50;;;1.40;;
22026;SDS011;11177;50.966;10.070;2023-04-15T11:02:52;2.97;;;1.67;;
22026;SDS011;11177;50.966;10.070;2023-04-15T11:08:14;1.55;;;1.45;;
22026;SDS011;11177;50.966;10.070;2023-04-15T11:13:22;1.50;;;1.40;;
22026;SDS011;11177;50.966;10.070;2023-04-15T11:15:56;1.35;;;1.13;;
22026;SDS011;11177;50.966;10.070;2023-04-15T11:18:25;1.27;;;1.10;;
22026;SDS011;11177;50.966;10.070;2023-04-15T11:21:01;1.45;;;1.00;;
22026;SDS011;11177;50.966;10.070;2023-04-15T11:23:31;1.45;;;0.90;;
22026;SDS011;11177;50.966;10.070;2023-04-15T11:26:00;19.20;;;12.60;;
22026;SDS011;11177;50.966;10.070;2023-04-15T11:28:29;3.88;;;2.75;;
22026;SDS011;11177;50.966;10.070;2023-04-15T11:30:57;3.17;;;1.40;;
22026;SDS011;11177;50.966;10.070;2023-04-15T11:33:30;16.55;;;10.50;;
22026;SDS011;11177;50.966;10.070;2023-04-15T11:35:57;17.65;;;14.63;;
22026;SDS011;11177;50.966;10.070;2023-04-15T11:38:25;7.63;;;5.50;;
22026;SDS011;11177;50.966;10.070;2023-04-15T11:40:52;1.52;;;1.42;;
22026;SDS011;11177;50.966;10.070;2023-04-15T11:43:22;15.45;;;12.77;;
22026;SDS011;11177;50.966;10.070;2023-04-15T11:48:22;55.25;;;29.30;;
22026;SDS011;11177;50.966;10.070;2023-04-15T11:50:52;17.05;;;9.48;;
22026;SDS011;11177;50.966;10.070;2023-04-15T11:53:21;1.17;;;1.00;;
22026;SDS011;11177;50.966;10.070;2023-04-15T11:55:50;2.55;;;0.90;;
22026;SDS011;11177;50.966;10.070;2023-04-15T11:58:23;1.30;;;1.08;;
22026;SDS011;11177;50.966;10.070;2023-04-15T12:00:51;4.65;;;4.25;;
22026;SDS011;11177;50.966;10.070;2023-04-15T12:03:21;2.72;;;2.53;;
22026;SDS011;11177;50.966;10.070;2023-04-15T12:11:19;2.60;;;2.40;;
22026;SDS011;11177;50.966;10.070;2023-04-15T12:13:47;1.30;;;1.20;;
22026;SDS011;11177;50.966;10.070;2023-04-15T12:16:16;2.85;;;1.90;;
22026;SDS011;11177;50.966;10.070;2023-04-15T12:18:46;2.70;;;2.50;;
22026;SDS011;11177;50.966;10.070;2023-04-15T12:21:19;3.25;;;2.92;;
22026;SDS011;11177;50.966;10.070;2023-04-15T12:23:51;1.25;;;1.15;;
22026;SDS011;11177;50.966;10.070;2023-04-15T12:26:27;1.20;;;1.10;;
22026;SDS011;11177;50.966;10.070;2023-04-15T12:29:00;3.30;;;3.00;;
22026;SDS011;11177;50.966;10.070;2023-04-15T12:31:28;1.17;;;1.00;;
22026;SDS011;11177;50.966;10.070;2023-04-15T12:33:56;0.80;;;0.80;;
22026;SDS011;11177;50.966;10.070;2023-04-15T12:36:27;1.02;;;1.00;;
22026;SDS011;11177;50.966;10.070;2023-04-15T12:38:54;1.67;;;1.20;;
22026;SDS011;11177;50.966;10.070;2023-04-15T12:41:21;1.30;;;1.02;;
22026;SDS011;11177;50.966;10.070;2023-04-15T12:43:53;0.90;;;0.90;;
22026;SDS011;11177;50.966;10.070;2023-04-15T12:46:20;19.67;;;10.52;;
22026;SDS011;11177;50.966;10.070;2023-04-15T12:48:47;0.88;;;0.88;;
22026;SDS011;11177;50.966;10.070;2023-04-15T12:51:14;66.97;;;40.25;;
22026;SDS011;11177;50.966;10.070;2023-04-15T12:53:41;38.80;;;26.23;;
22026;SDS011;11177;50.966;10.070;2023-04-15T12:56:08;4.72;;;3.75;;
22026;SDS011;11177;50.966;10.070;2023-04-15T12:58:35;1.65;;;1.55;;
22026;SDS011;11177;50.966;10.070;2023-04-15T13:01:02;1.25;;;1.15;;
22026;SDS011;11177;50.966;10.070;2023-04-15T13:03:30;1.20;;;1.10;;
22026;SDS011;11177;50.966;10.070;2023-04-15T13:05:57;1.48;;;1.20;;
22026;SDS011;11177;50.966;10.070;2023-04-15T13:08:24;3.17;;;2.88;;
22026;SDS011;11177;50.966;10.070;2023-04-15T13:10:51;2.70;;;2.50;;
22026;SDS011;11177;50.966;10.070;2023-04-15T13:13:18;2.38;;;1.52;;
22026;SDS011;11177;50.966;10.070;2023-04-15T13:15:49;1.98;;;1.60;;
22026;SDS011;11177;50.966;10.070;2023-04-15T13:18:16;1.90;;;1.50;;
22026;SDS011;11177;50.966;10.070;2023-04-15T13:20:43;1.80;;;1.70;;
22026;SDS011;11177;50.966;10.070;2023-04-15T13:23:10;1.55;;;1.45;;
22026;SDS011;11177;50.966;10.070;2023-04-15T13:25:38;1.60;;;1.50;;
22026;SDS011;11177;50.966;10.070;2023-04-15T13:28:05;2.63;;;1.83;;
22026;SDS011;11177;50.966;10.070;2023-04-15T13:30:36;5.35;;;1.50;;
22026;SDS011;11177;50.966;10.070;2023-04-15T13:33:03;2.10;;;1.90;;
22026;SDS011;11177;50.966;10.070;2023-04-15T13:35:31;1.98;;;1.65;;
22026;SDS011;11177;50.966;10.070;2023-04-15T13:37:59;2.45;;;1.90;;
22026;SDS011;11177;50.966;10.070;2023-04-15T13:40:29;2.40;;;1.85;;
22026;SDS011;11177;50.966;10.070;2023-04-15T13:42:56;1.95;;;1.80;;
22026;SDS011;11177;50.966;10.070;2023-04-15T13:45:24;3.10;;;1.60;;
22026;SDS011;11177;50.966;10.070;2023-04-15T13:47:52;2.55;;;1.90;;
22026;SDS011;11177;50.966;10.070;2023-04-15T13:50:19;1.90;;;1.70;;
22026;SDS011;11177;50.966;10.070;2023-04-15T13:52:46;2.58;;;1.90;;
22026;SDS011;11177;50.966;10.070;2023-04-15T13:55:14;1.92;;;1.73;;
22026;SDS011;11177;50.966;10.070;2023-04-15T13:57:47;1.80;;;1.70;;
22026;SDS011;11177;50.966;10.070;2023-04-15T14:00:16;1.98;;;1.70;;
22026;SDS011;11177;50.966;10.070;2023-04-15T14:02:45;2.15;;;1.90;;
22026;SDS011;11177;50.966;10.070;2023-04-15T14:05:13;2.92;;;2.00;;
22026;SDS011;11177;50.966;10.070;2023-04-15T14:07:40;3.15;;;2.00;;
22026;SDS011;11177;50.966;10.070;2023-04-15T14:10:10;2.47;;;2.05;;
22026;SDS011;11177;50.966;10.070;2023-04-15T14:12:39;2.58;;;2.22;;
22026;SDS011;11177;50.966;10.070;2023-04-15T14:15:06;5.90;;;3.22;;
22026;SDS011;11177;50.966;10.070;2023-04-15T14:17:34;2.30;;;2.10;;
22026;SDS011;11177;50.966;10.070;2023-04-15T14:20:02;2.25;;;2.05;;
22026;SDS011;11177;50.966;10.070;2023-04-15T14:22:29;3.13;;;2.28;;
22026;SDS011;11177;50.966;10.070;2023-04-15T14:24:59;3.33;;;2.60;;
22026;SDS011;11177;50.966;10.070;2023-04-15T14:27:26;2.08;;;1.88;;
22026;SDS011;11177;50.966;10.070;2023-04-15T14:29:54;2.58;;;2.20;;
22026;SDS011;11177;50.966;10.070;2023-04-15T14:32:21;4.03;;;2.65;;
22026;SDS011;11177;50.966;10.070;2023-04-15T14:34:48;3.03;;;2.47;;
22026;SDS011;11177;50.966;10.070;2023-04-15T14:37:15;2.72;;;2.20;;
22026;SDS011;11177;50.966;10.070;2023-04-15T14:39:42;2.72;;;2.33;;
22026;SDS011;11177;50.966;10.070;2023-04-15T14:42:09;2.83;;;2.38;;
22026;SDS011;11177;50.966;10.070;2023-04-15T14:44:36;4.07;;;2.80;;
22026;SDS011;11177;50.966;10.070;2023-04-15T14:47:05;2.92;;;2.60;;
22026;SDS011;11177;50.966;10.070;2023-04-15T14:49:32;2.92;;;2.53;;